sensor_id;sensor_type;location;lat;lon;timestamp;P1;durP1;ratioP1;P2;durP2;ratioP2
22770;SDS011;11552;50.786;4.332;2022-08-01T00:00:12;3.63;;;1.55;;
22770;SDS011;11552;50.786;4.332;2022-08-01T00:02:38;3.05;;;1.30;;
22770;SDS011;11552;50.786;4.332;2022-08-01T00:05:05;4.28;;;1.85;;
22770;SDS011;11552;50.786;4.332;2022-08-01T00:07:32;3.25;;;1.42;;
22770;SDS011;11552;50.786;4.332;2022-08-01T00:09:59;4.50;;;1.58;;
22770;SDS011;11552;50.786;4.332;2022-08-01T00:12:24;3.72;;;1.63;;
22770;SDS011;11552;50.786;4.332;2022-08-01T00:14:50;3.90;;;1.30;;
22770;SDS011;11552;50.786;4.332;2022-08-01T00:17:16;5.25;;;1.58;;
22770;SDS011;11552;50.786;4.332;2022-08-01T00:19:41;4.47;;;1.27;;
22770;SDS011;11552;50.786;4.332;2022-08-01T00:22:07;4.25;;;1.63;;
22770;SDS011;11552;50.786;4.332;2022-08-01T00:24:33;3.15;;;1.40;;
22770;SDS011;11552;50.786;4.332;2022-08-01T00:26:59;3.83;;;1.60;;
22770;SDS011;11552;50.786;4.332;2022-08-01T00:29:24;3.88;;;1.77;;
22770;SDS011;11552;50.786;4.332;2022-08-01T00:31:50;3.85;;;1.55;;
22770;SDS011;11552;50.786;4.332;2022-08-01T00:34:16;3.40;;;1.30;;
22770;SDS011;11552;50.786;4.332;2022-08-01T00:36:41;5.93;;;1.85;;
22770;SDS011;11552;50.786;4.332;2022-08-01T00:39:07;3.92;;;1.48;;
22770;SDS011;11552;50.786;4.332;2022-08-01T00:41:32;4.72;;;1.58;;
22770;SDS011;11552;50.786;4.332;2022-08-01T00:44:01;5.10;;;1.65;;
22770;SDS011;11552;50.786;4.332;2022-08-01T00:46:28;3.33;;;1.50;;
22770;SDS011;11552;50.786;4.332;2022-08-01T00:48:54;3.47;;;1.50;;
22770;SDS011;11552;50.786;4.332;2022-08-01T00:51:20;5.15;;;1.67;;
22770;SDS011;11552;50.786;4.332;2022-08-01T00:53:47;4.25;;;1.95;;
22770;SDS011;11552;50.786;4.332;2022-08-01T00:56:13;3.55;;;1.65;;
22770;SDS011;11552;50.786;4.332;2022-08-01T00:58:39;5.43;;;2.00;;
22770;SDS011;11552;50.786;4.332;2022-08-01T01:01:05;4.45;;;1.80;;
22770;SDS011;11552;50.786;4.332;2022-08-01T01:03:31;4.63;;;1.83;;
22770;SDS011;11552;50.786;4.332;2022-08-01T01:12:15;3.75;;;1.60;;
22770;SDS011;11552;50.786;4.332;2022-08-01T01:14:39;3.22;;;1.80;;
22770;SDS011;11552;50.786;4.332;2022-08-01T01:17:11;3.17;;;1.80;;
22770;SDS011;11552;50.786;4.332;2022-08-01T01:19:43;4.18;;;2.00;;
22770;SDS011;11552;50.786;4.332;2022-08-01T01:27:29;4.93;;;2.45;;
22770;SDS011;11552;50.786;4.332;2022-08-01T01:30:13;6.47;;;3.53;;
22770;SDS011;11552;50.786;4.332;2022-08-01T01:32:39;6.07;;;3.95;;
22770;SDS011;11552;50.786;4.332;2022-08-01T01:35:15;7.82;;;4.50;;
22770;SDS011;11552;50.786;4.332;2022-08-01T01:37:44;8.82;;;5.05;;
22770;SDS011;11552;50.786;4.332;2022-08-01T01:40:13;11.18;;;6.10;;
22770;SDS011;11552;50.786;4.332;2022-08-01T01:42:41;9.43;;;6.00;;
22770;SDS011;11552;50.786;4.332;2022-08-01T01:45:08;12.85;;;7.03;;
22770;SDS011;11552;50.786;4.332;2022-08-01T01:47:34;11.32;;;6.65;;
22770;SDS011;11552;50.786;4.332;2022-08-01T01:50:03;11.82;;;6.25;;
22770;SDS011;11552;50.786;4.332;2022-08-01T01:52:31;13.63;;;7.50;;
22770;SDS011;11552;50.786;4.332;2022-08-01T01:54:57;11.35;;;6.78;;
22770;SDS011;11552;50.786;4.332;2022-08-01T01:57:24;12.70;;;7.10;;
22770;SDS011;11552;50.786;4.332;2022-08-01T01:59:53;12.15;;;7.18;;
22770;SDS011;11552;50.786;4.332;2022-08-01T02:02:19;11.23;;;7.35;;
22770;SDS011;11552;50.786;4.332;2022-08-01T02:04:47;12.48;;;7.63;;
22770;SDS011;11552;50.786;4.332;2022-08-01T02:07:18;13.07;;;8.40;;
22770;SDS011;11552;50.786;4.332;2022-08-01T02:09:47;12.25;;;7.35;;
22770;SDS011;11552;50.786;4.332;2022-08-01T02:12:14;12.93;;;6.63;;
22770;SDS011;11552;50.786;4.332;2022-08-01T02:14:42;12.07;;;6.80;;
22770;SDS011;11552;50.786;4.332;2022-08-01T02:17:10;9.07;;;6.25;;
22770;SDS011;11552;50.786;4.332;2022-08-01T02:19:37;10.02;;;6.53;;
22770;SDS011;11552;50.786;4.332;2022-08-01T02:22:10;11.27;;;6.60;;
22770;SDS011;11552;50.786;4.332;2022-08-01T02:24:44;12.25;;;6.90;;
22770;SDS011;11552;50.786;4.332;2022-08-01T02:30:18;11.77;;;6.65;;
22770;SDS011;11552;50.786;4.332;2022-08-01T02:32:49;13.75;;;7.28;;
22770;SDS011;11552;50.786;4.332;2022-08-01T02:35:23;12.82;;;7.80;;
22770;SDS011;11552;50.786;4.332;2022-08-01T02:37:52;17.40;;;8.40;;
22770;SDS011;11552;50.786;4.332;2022-08-01T02:40:19;11.52;;;7.32;;
22770;SDS011;11552;50.786;4.332;2022-08-01T02:42:47;14.57;;;7.38;;
22770;SDS011;11552;50.786;4.332;2022-08-01T02:45:17;11.60;;;7.15;;
22770;SDS011;11552;50.786;4.332;2022-08-01T02:47:43;11.60;;;7.22;;
22770;SDS011;11552;50.786;4.332;2022-08-01T02:50:13;10.00;;;6.65;;
22770;SDS011;11552;50.786;4.332;2022-08-01T02:52:41;10.23;;;6.68;;
22770;SDS011;11552;50.786;4.332;2022-08-01T02:55:10;10.35;;;6.38;;
22770;SDS011;11552;50.786;4.332;2022-08-01T02:57:38;13.18;;;6.95;;
22770;SDS011;11552;50.786;4.332;2022-08-01T03:00:05;12.43;;;6.82;;
22770;SDS011;11552;50.786;4.332;2022-08-01T03:02:32;9.70;;;6.22;;
22770;SDS011;11552;50.786;4.332;2022-08-01T03:05:00;13.13;;;6.45;;
22770;SDS011;11552;50.786;4.332;2022-08-01T03:07:28;11.15;;;6.18;;
22770;SDS011;11552;50.786;4.332;2022-08-01T03:09:54;11.57;;;6.10;;
22770;SDS011;11552;50.786;4.332;2022-08-01T03:12:23;12.10;;;5.88;;
22770;SDS011;11552;50.786;4.332;2022-08-01T03:14:51;11.27;;;6.25;;
22770;SDS011;11552;50.786;4.332;2022-08-01T03:17:20;11.68;;;6.43;;
22770;SDS011;11552;50.786;4.332;2022-08-01T03:19:47;10.77;;;6.10;;
22770;SDS011;11552;50.786;4.332;2022-08-01T03:22:14;13.20;;;5.63;;
22770;SDS011;11552;50.786;4.332;2022-08-01T03:24:41;14.10;;;6.55;;
22770;SDS011;11552;50.786;4.332;2022-08-01T03:27:09;15.60;;;6.50;;
22770;SDS011;11552;50.786;4.332;2022-08-01T03:29:36;11.02;;;6.25;;
22770;SDS011;11552;50.786;4.332;2022-08-01T03:32:04;11.95;;;6.05;;
22770;SDS011;11552;50.786;4.332;2022-08-01T03:34:31;14.50;;;6.43;;
22770;SDS011;11552;50.786;4.332;2022-08-01T03:37:14;13.02;;;6.63;;
22770;SDS011;11552;50.786;4.332;2022-08-01T03:39:56;12.05;;;6.72;;
22770;SDS011;11552;50.786;4.332;2022-08-01T03:42:28;15.43;;;7.10;;
22770;SDS011;11552;50.786;4.332;2022-08-01T03:44:59;16.60;;;6.85;;
22770;SDS011;11552;50.786;4.332;2022-08-01T03:47:31;15.38;;;6.88;;
22770;SDS011;11552;50.786;4.332;2022-08-01T03:49:58;17.35;;;7.45;;
22770;SDS011;11552;50.786;4.332;2022-08-01T03:52:27;13.10;;;6.35;;
22770;SDS011;11552;50.786;4.332;2022-08-01T03:54:55;18.27;;;7.78;;
22770;SDS011;11552;50.786;4.332;2022-08-01T03:57:23;13.90;;;6.80;;
22770;SDS011;11552;50.786;4.332;2022-08-01T03:59:50;14.40;;;7.40;;
22770;SDS011;11552;50.786;4.332;2022-08-01T04:02:17;15.43;;;7.68;;
22770;SDS011;11552;50.786;4.332;2022-08-01T04:04:44;15.23;;;7.68;;
22770;SDS011;11552;50.786;4.332;2022-08-01T04:07:23;16.17;;;8.52;;
22770;SDS011;11552;50.786;4.332;2022-08-01T04:09:54;15.10;;;8.55;;
22770;SDS011;11552;50.786;4.332;2022-08-01T04:12:20;14.55;;;8.85;;
22770;SDS011;11552;50.786;4.332;2022-08-01T04:14:46;14.68;;;8.85;;
22770;SDS011;11552;50.786;4.332;2022-08-01T04:17:12;18.30;;;9.88;;
22770;SDS011;11552;50.786;4.332;2022-08-01T04:19:38;17.85;;;9.50;;
22770;SDS011;11552;50.786;4.332;2022-08-01T04:22:05;19.52;;;9.60;;
22770;SDS011;11552;50.786;4.332;2022-08-01T04:24:32;18.52;;;10.65;;
22770;SDS011;11552;50.786;4.332;2022-08-01T04:27:00;16.20;;;10.32;;
22770;SDS011;11552;50.786;4.332;2022-08-01T04:29:29;15.40;;;10.30;;
22770;SDS011;11552;50.786;4.332;2022-08-01T04:31:56;19.33;;;11.23;;
22770;SDS011;11552;50.786;4.332;2022-08-01T04:34:25;22.00;;;10.98;;
22770;SDS011;11552;50.786;4.332;2022-08-01T04:36:54;16.80;;;11.35;;
22770;SDS011;11552;50.786;4.332;2022-08-01T04:39:23;17.40;;;11.40;;
22770;SDS011;11552;50.786;4.332;2022-08-01T04:41:52;22.38;;;11.65;;
22770;SDS011;11552;50.786;4.332;2022-08-01T04:44:22;23.25;;;11.48;;
22770;SDS011;11552;50.786;4.332;2022-08-01T04:46:49;23.73;;;12.65;;
22770;SDS011;11552;50.786;4.332;2022-08-01T04:49:19;21.48;;;12.27;;
22770;SDS011;11552;50.786;4.332;2022-08-01T04:51:52;17.48;;;12.73;;
22770;SDS011;11552;50.786;4.332;2022-08-01T04:54:28;18.92;;;12.00;;
22770;SDS011;11552;50.786;4.332;2022-08-01T04:56:55;16.35;;;12.57;;
22770;SDS011;11552;50.786;4.332;2022-08-01T04:59:27;20.42;;;13.05;;
22770;SDS011;11552;50.786;4.332;2022-08-01T05:04:32;23.15;;;15.25;;
22770;SDS011;11552;50.786;4.332;2022-08-01T05:06:58;23.30;;;15.60;;
22770;SDS011;11552;50.786;4.332;2022-08-01T05:09:24;22.95;;;16.10;;
22770;SDS011;11552;50.786;4.332;2022-08-01T05:11:50;26.02;;;16.73;;
22770;SDS011;11552;50.786;4.332;2022-08-01T05:14:16;25.90;;;15.05;;
22770;SDS011;11552;50.786;4.332;2022-08-01T05:16:41;17.67;;;14.43;;
22770;SDS011;11552;50.786;4.332;2022-08-01T05:19:07;23.75;;;16.05;;
22770;SDS011;11552;50.786;4.332;2022-08-01T05:21:34;23.48;;;15.93;;
22770;SDS011;11552;50.786;4.332;2022-08-01T05:24:00;25.33;;;16.52;;
22770;SDS011;11552;50.786;4.332;2022-08-01T05:26:25;25.73;;;17.80;;
22770;SDS011;11552;50.786;4.332;2022-08-01T05:28:51;27.23;;;15.90;;
22770;SDS011;11552;50.786;4.332;2022-08-01T05:31:17;23.67;;;16.02;;
22770;SDS011;11552;50.786;4.332;2022-08-01T05:33:43;23.25;;;16.00;;
22770;SDS011;11552;50.786;4.332;2022-08-01T05:36:08;24.50;;;16.65;;
22770;SDS011;11552;50.786;4.332;2022-08-01T05:38:34;22.92;;;15.85;;
22770;SDS011;11552;50.786;4.332;2022-08-01T05:41:00;24.67;;;16.58;;
22770;SDS011;11552;50.786;4.332;2022-08-01T05:43:26;26.77;;;17.00;;
22770;SDS011;11552;50.786;4.332;2022-08-01T05:45:51;27.35;;;16.17;;
22770;SDS011;11552;50.786;4.332;2022-08-01T05:48:17;25.30;;;16.55;;
22770;SDS011;11552;50.786;4.332;2022-08-01T05:50:43;27.55;;;16.42;;
22770;SDS011;11552;50.786;4.332;2022-08-01T05:53:08;23.05;;;16.55;;
22770;SDS011;11552;50.786;4.332;2022-08-01T05:55:34;25.77;;;16.80;;
22770;SDS011;11552;50.786;4.332;2022-08-01T05:58:01;23.88;;;16.92;;
22770;SDS011;11552;50.786;4.332;2022-08-01T06:00:27;22.35;;;15.73;;
22770;SDS011;11552;50.786;4.332;2022-08-01T06:02:52;23.73;;;15.05;;
22770;SDS011;11552;50.786;4.332;2022-08-01T06:05:18;18.83;;;13.18;;
22770;SDS011;11552;50.786;4.332;2022-08-01T06:07:44;15.35;;;11.27;;
22770;SDS011;11552;50.786;4.332;2022-08-01T06:10:09;18.95;;;12.15;;
22770;SDS011;11552;50.786;4.332;2022-08-01T06:12:35;14.77;;;10.68;;
22770;SDS011;11552;50.786;4.332;2022-08-01T06:15:02;13.68;;;9.68;;
22770;SDS011;11552;50.786;4.332;2022-08-01T06:17:29;13.15;;;9.77;;
22770;SDS011;11552;50.786;4.332;2022-08-01T06:19:54;14.35;;;10.15;;
22770;SDS011;11552;50.786;4.332;2022-08-01T06:22:20;15.65;;;9.93;;
22770;SDS011;11552;50.786;4.332;2022-08-01T06:24:46;12.60;;;10.05;;
22770;SDS011;11552;50.786;4.332;2022-08-01T06:27:12;14.20;;;9.23;;
22770;SDS011;11552;50.786;4.332;2022-08-01T06:29:37;15.07;;;10.13;;
22770;SDS011;11552;50.786;4.332;2022-08-01T06:32:03;15.52;;;9.45;;
22770;SDS011;11552;50.786;4.332;2022-08-01T06:34:29;12.93;;;8.63;;
22770;SDS011;11552;50.786;4.332;2022-08-01T06:36:55;13.45;;;8.93;;
22770;SDS011;11552;50.786;4.332;2022-08-01T06:39:20;11.82;;;8.52;;
22770;SDS011;11552;50.786;4.332;2022-08-01T06:41:46;12.02;;;7.30;;
22770;SDS011;11552;50.786;4.332;2022-08-01T06:44:12;8.60;;;7.07;;
22770;SDS011;11552;50.786;4.332;2022-08-01T06:46:38;11.93;;;7.25;;
22770;SDS011;11552;50.786;4.332;2022-08-01T06:49:03;9.50;;;7.25;;
22770;SDS011;11552;50.786;4.332;2022-08-01T06:51:29;7.85;;;6.43;;
22770;SDS011;11552;50.786;4.332;2022-08-01T06:53:54;9.05;;;6.75;;
22770;SDS011;11552;50.786;4.332;2022-08-01T06:56:20;10.55;;;7.32;;
22770;SDS011;11552;50.786;4.332;2022-08-01T06:58:46;7.88;;;6.20;;
22770;SDS011;11552;50.786;4.332;2022-08-01T07:01:12;10.35;;;6.90;;
22770;SDS011;11552;50.786;4.332;2022-08-01T07:03:38;9.85;;;6.47;;
22770;SDS011;11552;50.786;4.332;2022-08-01T07:06:04;10.30;;;6.38;;
22770;SDS011;11552;50.786;4.332;2022-08-01T07:08:29;8.10;;;5.38;;
22770;SDS011;11552;50.786;4.332;2022-08-01T07:10:55;7.20;;;4.75;;
22770;SDS011;11552;50.786;4.332;2022-08-01T07:13:24;7.15;;;4.90;;
22770;SDS011;11552;50.786;4.332;2022-08-01T07:15:51;7.15;;;4.72;;
22770;SDS011;11552;50.786;4.332;2022-08-01T07:18:17;8.43;;;5.10;;
22770;SDS011;11552;50.786;4.332;2022-08-01T07:20:43;6.97;;;4.70;;
22770;SDS011;11552;50.786;4.332;2022-08-01T07:23:11;9.00;;;4.95;;
22770;SDS011;11552;50.786;4.332;2022-08-01T07:25:37;10.68;;;5.30;;
22770;SDS011;11552;50.786;4.332;2022-08-01T07:28:03;7.50;;;5.18;;
22770;SDS011;11552;50.786;4.332;2022-08-01T07:30:29;9.00;;;5.05;;
22770;SDS011;11552;50.786;4.332;2022-08-01T07:32:55;7.70;;;4.10;;
22770;SDS011;11552;50.786;4.332;2022-08-01T07:35:20;5.60;;;3.70;;
22770;SDS011;11552;50.786;4.332;2022-08-01T07:37:46;6.30;;;3.80;;
22770;SDS011;11552;50.786;4.332;2022-08-01T07:40:12;5.55;;;3.83;;
22770;SDS011;11552;50.786;4.332;2022-08-01T07:42:38;5.72;;;3.40;;
22770;SDS011;11552;50.786;4.332;2022-08-01T07:45:04;4.97;;;3.65;;
22770;SDS011;11552;50.786;4.332;2022-08-01T07:47:29;6.25;;;3.58;;
22770;SDS011;11552;50.786;4.332;2022-08-01T07:49:59;4.88;;;3.30;;
22770;SDS011;11552;50.786;4.332;2022-08-01T07:52:25;4.50;;;2.50;;
22770;SDS011;11552;50.786;4.332;2022-08-01T07:54:52;3.97;;;2.50;;
22770;SDS011;11552;50.786;4.332;2022-08-01T07:57:17;7.00;;;3.20;;
22770;SDS011;11552;50.786;4.332;2022-08-01T07:59:43;5.30;;;3.28;;
22770;SDS011;11552;50.786;4.332;2022-08-01T08:02:09;3.22;;;2.75;;
22770;SDS011;11552;50.786;4.332;2022-08-01T08:04:36;4.38;;;3.22;;
22770;SDS011;11552;50.786;4.332;2022-08-01T08:07:02;3.53;;;3.15;;
22770;SDS011;11552;50.786;4.332;2022-08-01T08:09:27;3.53;;;2.55;;
22770;SDS011;11552;50.786;4.332;2022-08-01T08:11:53;3.10;;;2.40;;
22770;SDS011;11552;50.786;4.332;2022-08-01T08:14:19;3.92;;;2.40;;
22770;SDS011;11552;50.786;4.332;2022-08-01T08:16:47;5.90;;;2.58;;
22770;SDS011;11552;50.786;4.332;2022-08-01T08:19:13;3.33;;;2.30;;
22770;SDS011;11552;50.786;4.332;2022-08-01T08:21:39;5.32;;;2.28;;
22770;SDS011;11552;50.786;4.332;2022-08-01T08:24:06;3.30;;;2.15;;
22770;SDS011;11552;50.786;4.332;2022-08-01T08:26:50;4.40;;;2.28;;
22770;SDS011;11552;50.786;4.332;2022-08-01T08:29:19;2.83;;;2.10;;
22770;SDS011;11552;50.786;4.332;2022-08-01T08:31:45;3.40;;;1.80;;
22770;SDS011;11552;50.786;4.332;2022-08-01T08:34:11;2.05;;;1.40;;
22770;SDS011;11552;50.786;4.332;2022-08-01T08:36:37;2.80;;;1.50;;
22770;SDS011;11552;50.786;4.332;2022-08-01T08:39:03;3.20;;;1.33;;
22770;SDS011;11552;50.786;4.332;2022-08-01T08:41:30;2.58;;;1.60;;
22770;SDS011;11552;50.786;4.332;2022-08-01T08:43:56;4.07;;;1.70;;
22770;SDS011;11552;50.786;4.332;2022-08-01T08:46:24;3.65;;;1.70;;
22770;SDS011;11552;50.786;4.332;2022-08-01T08:48:51;6.03;;;2.42;;
22770;SDS011;11552;50.786;4.332;2022-08-01T08:51:17;3.20;;;1.70;;
22770;SDS011;11552;50.786;4.332;2022-08-01T08:53:44;3.35;;;1.70;;
22770;SDS011;11552;50.786;4.332;2022-08-01T08:56:12;4.28;;;1.73;;
22770;SDS011;11552;50.786;4.332;2022-08-01T08:58:40;3.97;;;1.77;;
22770;SDS011;11552;50.786;4.332;2022-08-01T09:01:08;2.83;;;1.40;;
22770;SDS011;11552;50.786;4.332;2022-08-01T09:03:35;3.30;;;1.40;;
22770;SDS011;11552;50.786;4.332;2022-08-01T09:06:01;3.25;;;1.90;;
22770;SDS011;11552;50.786;4.332;2022-08-01T09:08:28;2.90;;;1.63;;
22770;SDS011;11552;50.786;4.332;2022-08-01T09:10:54;4.30;;;2.28;;
22770;SDS011;11552;50.786;4.332;2022-08-01T09:13:20;5.10;;;2.45;;
22770;SDS011;11552;50.786;4.332;2022-08-01T09:15:47;3.72;;;2.30;;
22770;SDS011;11552;50.786;4.332;2022-08-01T09:18:28;3.95;;;2.20;;
22770;SDS011;11552;50.786;4.332;2022-08-01T09:23:38;3.55;;;2.50;;
22770;SDS011;11552;50.786;4.332;2022-08-01T09:26:08;3.83;;;2.35;;
22770;SDS011;11552;50.786;4.332;2022-08-01T09:28:35;3.20;;;2.03;;
22770;SDS011;11552;50.786;4.332;2022-08-01T09:31:09;4.00;;;1.80;;
22770;SDS011;11552;50.786;4.332;2022-08-01T09:36:25;2.53;;;1.90;;
22770;SDS011;11552;50.786;4.332;2022-08-01T09:39:11;3.28;;;1.88;;
22770;SDS011;11552;50.786;4.332;2022-08-01T09:41:38;3.75;;;2.00;;
22770;SDS011;11552;50.786;4.332;2022-08-01T09:44:05;3.50;;;1.83;;
22770;SDS011;11552;50.786;4.332;2022-08-01T09:46:31;2.90;;;1.52;;
22770;SDS011;11552;50.786;4.332;2022-08-01T09:48:57;5.03;;;1.60;;
22770;SDS011;11552;50.786;4.332;2022-08-01T09:51:35;1.98;;;1.38;;
22770;SDS011;11552;50.786;4.332;2022-08-01T09:54:03;4.13;;;1.45;;
22770;SDS011;11552;50.786;4.332;2022-08-01T09:56:37;3.15;;;1.65;;
22770;SDS011;11552;50.786;4.332;2022-08-01T09:59:04;3.00;;;1.80;;
22770;SDS011;11552;50.786;4.332;2022-08-01T10:04:13;1.98;;;1.50;;
22770;SDS011;11552;50.786;4.332;2022-08-01T10:06:41;3.97;;;1.60;;
22770;SDS011;11552;50.786;4.332;2022-08-01T10:09:09;1.90;;;1.70;;
22770;SDS011;11552;50.786;4.332;2022-08-01T10:11:36;4.25;;;1.58;;
22770;SDS011;11552;50.786;4.332;2022-08-01T10:14:06;3.65;;;1.63;;
22770;SDS011;11552;50.786;4.332;2022-08-01T10:16:33;7.28;;;1.77;;
22770;SDS011;11552;50.786;4.332;2022-08-01T10:19:02;3.58;;;1.73;;
22770;SDS011;11552;50.786;4.332;2022-08-01T10:21:30;7.57;;;1.70;;
22770;SDS011;11552;50.786;4.332;2022-08-01T10:23:58;2.80;;;1.67;;
22770;SDS011;11552;50.786;4.332;2022-08-01T10:26:26;1.63;;;1.35;;
22770;SDS011;11552;50.786;4.332;2022-08-01T10:28:54;3.42;;;1.40;;
22770;SDS011;11552;50.786;4.332;2022-08-01T10:31:20;4.75;;;1.50;;
22770;SDS011;11552;50.786;4.332;2022-08-01T10:33:46;3.13;;;1.42;;
22770;SDS011;11552;50.786;4.332;2022-08-01T10:36:12;3.50;;;1.65;;
22770;SDS011;11552;50.786;4.332;2022-08-01T10:38:38;2.45;;;1.40;;
22770;SDS011;11552;50.786;4.332;2022-08-01T10:41:05;3.28;;;1.13;;
22770;SDS011;11552;50.786;4.332;2022-08-01T10:43:30;4.18;;;1.52;;
22770;SDS011;11552;50.786;4.332;2022-08-01T10:45:56;3.17;;;1.33;;
22770;SDS011;11552;50.786;4.332;2022-08-01T10:48:31;3.20;;;1.63;;
22770;SDS011;11552;50.786;4.332;2022-08-01T10:51:01;3.47;;;1.20;;
22770;SDS011;11552;50.786;4.332;2022-08-01T10:53:29;1.73;;;1.13;;
22770;SDS011;11552;50.786;4.332;2022-08-01T10:58:28;2.22;;;1.33;;
22770;SDS011;11552;50.786;4.332;2022-08-01T11:03:59;2.20;;;1.30;;
22770;SDS011;11552;50.786;4.332;2022-08-01T11:08:58;1.65;;;1.10;;
22770;SDS011;11552;50.786;4.332;2022-08-01T11:11:25;3.05;;;1.90;;
22770;SDS011;11552;50.786;4.332;2022-08-01T11:16:56;4.32;;;0.90;;
22770;SDS011;11552;50.786;4.332;2022-08-01T11:19:15;4.50;;;1.20;;
22770;SDS011;11552;50.786;4.332;2022-08-01T11:27:16;3.40;;;0.80;;
22770;SDS011;11552;50.786;4.332;2022-08-01T11:29:41;4.30;;;0.93;;
22770;SDS011;11552;50.786;4.332;2022-08-01T11:32:23;2.25;;;0.60;;
22770;SDS011;11552;50.786;4.332;2022-08-01T11:34:53;1.45;;;0.50;;
22770;SDS011;11552;50.786;4.332;2022-08-01T11:37:25;1.45;;;0.50;;
22770;SDS011;11552;50.786;4.332;2022-08-01T11:43:22;2.00;;;0.60;;
22770;SDS011;11552;50.786;4.332;2022-08-01T11:45:49;2.33;;;0.83;;
22770;SDS011;11552;50.786;4.332;2022-08-01T11:48:23;3.75;;;0.80;;
22770;SDS011;11552;50.786;4.332;2022-08-01T11:50:51;2.38;;;0.70;;
22770;SDS011;11552;50.786;4.332;2022-08-01T11:53:18;2.28;;;0.68;;
22770;SDS011;11552;50.786;4.332;2022-08-01T11:55:48;1.70;;;0.68;;
22770;SDS011;11552;50.786;4.332;2022-08-01T11:58:19;5.45;;;0.95;;
22770;SDS011;11552;50.786;4.332;2022-08-01T12:00:51;2.45;;;0.80;;
22770;SDS011;11552;50.786;4.332;2022-08-01T12:03:25;2.42;;;0.60;;
22770;SDS011;11552;50.786;4.332;2022-08-01T12:05:57;3.47;;;0.95;;
22770;SDS011;11552;50.786;4.332;2022-08-01T12:08:24;3.58;;;0.60;;
22770;SDS011;11552;50.786;4.332;2022-08-01T12:11:02;1.50;;;0.47;;
22770;SDS011;11552;50.786;4.332;2022-08-01T12:13:38;4.75;;;0.80;;
22770;SDS011;11552;50.786;4.332;2022-08-01T12:16:07;1.95;;;0.60;;
22770;SDS011;11552;50.786;4.332;2022-08-01T12:18:40;2.85;;;0.70;;
22770;SDS011;11552;50.786;4.332;2022-08-01T12:23:33;4.30;;;0.60;;
22770;SDS011;11552;50.786;4.332;2022-08-01T12:25:58;3.42;;;1.00;;
22770;SDS011;11552;50.786;4.332;2022-08-01T12:28:25;1.75;;;0.60;;
22770;SDS011;11552;50.786;4.332;2022-08-01T12:30:51;2.70;;;0.52;;
22770;SDS011;11552;50.786;4.332;2022-08-01T12:33:19;3.90;;;0.73;;
22770;SDS011;11552;50.786;4.332;2022-08-01T12:35:45;10.60;;;0.90;;
22770;SDS011;11552;50.786;4.332;2022-08-01T12:38:15;3.10;;;0.75;;
22770;SDS011;11552;50.786;4.332;2022-08-01T12:40:47;2.17;;;0.60;;
22770;SDS011;11552;50.786;4.332;2022-08-01T12:43:18;3.63;;;0.77;;
22770;SDS011;11552;50.786;4.332;2022-08-01T12:45:46;1.67;;;0.60;;
22770;SDS011;11552;50.786;4.332;2022-08-01T12:48:16;3.47;;;0.80;;
22770;SDS011;11552;50.786;4.332;2022-08-01T12:50:44;1.63;;;0.50;;
22770;SDS011;11552;50.786;4.332;2022-08-01T12:53:12;2.28;;;0.60;;
22770;SDS011;11552;50.786;4.332;2022-08-01T12:55:45;3.10;;;0.70;;
22770;SDS011;11552;50.786;4.332;2022-08-01T12:58:13;2.75;;;0.60;;
22770;SDS011;11552;50.786;4.332;2022-08-01T13:00:40;5.90;;;1.45;;
22770;SDS011;11552;50.786;4.332;2022-08-01T13:03:10;2.05;;;0.52;;
22770;SDS011;11552;50.786;4.332;2022-08-01T13:05:43;2.03;;;0.60;;
22770;SDS011;11552;50.786;4.332;2022-08-01T13:08:13;2.38;;;0.60;;
22770;SDS011;11552;50.786;4.332;2022-08-01T13:10:41;5.03;;;0.80;;
22770;SDS011;11552;50.786;4.332;2022-08-01T13:13:08;1.17;;;0.60;;
22770;SDS011;11552;50.786;4.332;2022-08-01T13:15:35;3.20;;;0.70;;
22770;SDS011;11552;50.786;4.332;2022-08-01T13:20:50;2.53;;;0.60;;
22770;SDS011;11552;50.786;4.332;2022-08-01T13:23:40;2.42;;;0.70;;
22770;SDS011;11552;50.786;4.332;2022-08-01T13:26:07;4.60;;;0.60;;
22770;SDS011;11552;50.786;4.332;2022-08-01T13:28:33;3.80;;;0.90;;
22770;SDS011;11552;50.786;4.332;2022-08-01T13:31:03;3.95;;;0.80;;
22770;SDS011;11552;50.786;4.332;2022-08-01T13:33:41;2.35;;;0.70;;
22770;SDS011;11552;50.786;4.332;2022-08-01T13:36:08;3.58;;;0.82;;
22770;SDS011;11552;50.786;4.332;2022-08-01T13:38:34;2.22;;;0.80;;
22770;SDS011;11552;50.786;4.332;2022-08-01T13:41:19;2.10;;;0.70;;
22770;SDS011;11552;50.786;4.332;2022-08-01T13:43:44;5.28;;;0.65;;
22770;SDS011;11552;50.786;4.332;2022-08-01T13:46:10;2.00;;;0.68;;
22770;SDS011;11552;50.786;4.332;2022-08-01T13:48:36;3.50;;;1.10;;
22770;SDS011;11552;50.786;4.332;2022-08-01T13:51:02;3.78;;;1.05;;
22770;SDS011;11552;50.786;4.332;2022-08-01T13:53:28;1.95;;;0.80;;
22770;SDS011;11552;50.786;4.332;2022-08-01T13:55:53;2.40;;;0.88;;
22770;SDS011;11552;50.786;4.332;2022-08-01T13:58:19;2.35;;;0.68;;
22770;SDS011;11552;50.786;4.332;2022-08-01T14:00:45;2.05;;;0.70;;
22770;SDS011;11552;50.786;4.332;2022-08-01T14:03:11;4.05;;;1.00;;
22770;SDS011;11552;50.786;4.332;2022-08-01T14:05:37;1.80;;;0.77;;
22770;SDS011;11552;50.786;4.332;2022-08-01T14:08:04;3.78;;;0.70;;
22770;SDS011;11552;50.786;4.332;2022-08-01T14:10:30;1.67;;;0.68;;
22770;SDS011;11552;50.786;4.332;2022-08-01T14:12:56;2.85;;;0.77;;
22770;SDS011;11552;50.786;4.332;2022-08-01T14:15:23;2.25;;;0.88;;
22770;SDS011;11552;50.786;4.332;2022-08-01T14:17:49;2.13;;;0.60;;
22770;SDS011;11552;50.786;4.332;2022-08-01T14:20:15;2.35;;;0.88;;
22770;SDS011;11552;50.786;4.332;2022-08-01T14:22:44;2.78;;;0.63;;
22770;SDS011;11552;50.786;4.332;2022-08-01T14:25:10;9.30;;;1.10;;
22770;SDS011;11552;50.786;4.332;2022-08-01T14:27:36;1.88;;;0.80;;
22770;SDS011;11552;50.786;4.332;2022-08-01T14:30:05;3.72;;;1.13;;
22770;SDS011;11552;50.786;4.332;2022-08-01T14:32:32;3.10;;;1.00;;
22770;SDS011;11552;50.786;4.332;2022-08-01T14:34:58;2.65;;;0.85;;
22770;SDS011;11552;50.786;4.332;2022-08-01T14:37:24;2.80;;;0.70;;
22770;SDS011;11552;50.786;4.332;2022-08-01T14:39:50;1.80;;;0.63;;
22770;SDS011;11552;50.786;4.332;2022-08-01T14:42:16;3.30;;;0.80;;
22770;SDS011;11552;50.786;4.332;2022-08-01T14:44:41;4.65;;;0.90;;
22770;SDS011;11552;50.786;4.332;2022-08-01T14:47:07;4.78;;;0.98;;
22770;SDS011;11552;50.786;4.332;2022-08-01T14:49:33;2.78;;;0.50;;
22770;SDS011;11552;50.786;4.332;2022-08-01T14:51:58;2.20;;;0.80;;
22770;SDS011;11552;50.786;4.332;2022-08-01T14:54:24;2.40;;;0.75;;
22770;SDS011;11552;50.786;4.332;2022-08-01T14:56:50;5.10;;;1.10;;
22770;SDS011;11552;50.786;4.332;2022-08-01T14:59:17;3.20;;;0.80;;
22770;SDS011;11552;50.786;4.332;2022-08-01T15:01:44;1.45;;;0.63;;
22770;SDS011;11552;50.786;4.332;2022-08-01T15:04:09;3.17;;;0.73;;
22770;SDS011;11552;50.786;4.332;2022-08-01T15:06:35;1.52;;;0.70;;
22770;SDS011;11552;50.786;4.332;2022-08-01T15:09:01;3.08;;;1.02;;
22770;SDS011;11552;50.786;4.332;2022-08-01T15:11:29;2.20;;;0.80;;
22770;SDS011;11552;50.786;4.332;2022-08-01T15:13:55;4.22;;;1.00;;
22770;SDS011;11552;50.786;4.332;2022-08-01T15:16:39;1.52;;;0.60;;
22770;SDS011;11552;50.786;4.332;2022-08-01T15:19:04;4.43;;;0.70;;
22770;SDS011;11552;50.786;4.332;2022-08-01T15:21:30;2.55;;;0.70;;
22770;SDS011;11552;50.786;4.332;2022-08-01T15:23:57;3.17;;;1.05;;
22770;SDS011;11552;50.786;4.332;2022-08-01T15:26:22;5.38;;;0.88;;
22770;SDS011;11552;50.786;4.332;2022-08-01T15:28:48;2.63;;;0.77;;
22770;SDS011;11552;50.786;4.332;2022-08-01T15:31:13;2.30;;;0.90;;
22770;SDS011;11552;50.786;4.332;2022-08-01T15:33:39;2.38;;;0.73;;